sensor_id;sensor_type;location;lat;lon;timestamp;P1;durP1;ratioP1;P2;durP2;ratioP2
73776;SDS011;62088;50.240;2.696;2023-05-10T00:00:42;12.45;;;3.58;;
73776;SDS011;62088;50.240;2.696;2023-05-10T00:03:09;12.73;;;3.83;;
73776;SDS011;62088;50.240;2.696;2023-05-10T00:05:36;15.85;;;3.65;;
73776;SDS011;62088;50.240;2.696;2023-05-10T00:08:03;12.27;;;2.88;;
73776;SDS011;62088;50.240;2.696;2023-05-10T00:10:30;12.07;;;3.10;;
73776;SDS011;62088;50.240;2.696;2023-05-10T00:12:57;11.48;;;3.00;;
73776;SDS011;62088;50.240;2.696;2023-05-10T00:15:25;13.50;;;2.95;;
73776;SDS011;62088;50.240;2.696;2023-05-10T00:17:52;11.02;;;2.85;;
73776;SDS011;62088;50.240;2.696;2023-05-10T00:20:20;11.65;;;2.67;;
73776;SDS011;62088;50.240;2.696;2023-05-10T00:22:47;11.60;;;2.83;;
73776;SDS011;62088;50.240;2.696;2023-05-10T00:25:14;10.68;;;2.78;;
73776;SDS011;62088;50.240;2.696;2023-05-10T00:27:42;8.43;;;2.50;;
73776;SDS011;62088;50.240;2.696;2023-05-10T00:30:10;8.45;;;2.53;;
73776;SDS011;62088;50.240;2.696;2023-05-10T00:32:37;15.00;;;3.10;;
73776;SDS011;62088;50.240;2.696;2023-05-10T00:35:04;10.82;;;3.00;;
73776;SDS011;62088;50.240;2.696;2023-05-10T00:37:31;10.25;;;2.15;;
73776;SDS011;62088;50.240;2.696;2023-05-10T00:39:58;12.25;;;2.40;;
73776;SDS011;62088;50.240;2.696;2023-05-10T00:42:25;13.10;;;2.47;;
73776;SDS011;62088;50.240;2.696;2023-05-10T00:44:53;14.27;;;2.38;;
73776;SDS011;62088;50.240;2.696;2023-05-10T00:47:20;15.48;;;2.15;;
73776;SDS011;62088;50.240;2.696;2023-05-10T00:49:48;13.57;;;2.38;;
73776;SDS011;62088;50.240;2.696;2023-05-10T00:52:16;9.57;;;2.17;;
73776;SDS011;62088;50.240;2.696;2023-05-10T00:54:43;7.80;;;1.88;;
73776;SDS011;62088;50.240;2.696;2023-05-10T00:57:10;14.38;;;2.28;;
73776;SDS011;62088;50.240;2.696;2023-05-10T00:59:37;9.70;;;2.10;;
73776;SDS011;62088;50.240;2.696;2023-05-10T01:02:05;8.13;;;1.63;;
73776;SDS011;62088;50.240;2.696;2023-05-10T01:04:33;8.07;;;1.50;;
73776;SDS011;62088;50.240;2.696;2023-05-10T01:07:02;8.63;;;1.70;;
73776;SDS011;62088;50.240;2.696;2023-05-10T01:09:29;8.68;;;1.90;;
73776;SDS011;62088;50.240;2.696;2023-05-10T01:11:56;10.00;;;2.10;;
73776;SDS011;62088;50.240;2.696;2023-05-10T01:14:23;10.40;;;1.67;;
73776;SDS011;62088;50.240;2.696;2023-05-10T01:16:52;8.75;;;1.83;;
73776;SDS011;62088;50.240;2.696;2023-05-10T01:19:23;6.35;;;1.50;;
73776;SDS011;62088;50.240;2.696;2023-05-10T01:22:04;12.02;;;1.98;;
73776;SDS011;62088;50.240;2.696;2023-05-10T01:24:50;10.03;;;2.03;;
73776;SDS011;62088;50.240;2.696;2023-05-10T01:31:06;8.48;;;1.90;;
73776;SDS011;62088;50.240;2.696;2023-05-10T01:36:04;6.97;;;1.80;;
73776;SDS011;62088;50.240;2.696;2023-05-10T01:41:26;9.75;;;1.95;;
73776;SDS011;62088;50.240;2.696;2023-05-10T01:47:01;9.63;;;2.00;;
73776;SDS011;62088;50.240;2.696;2023-05-10T01:49:39;12.68;;;2.00;;
73776;SDS011;62088;50.240;2.696;2023-05-10T01:52:10;10.13;;;1.85;;
73776;SDS011;62088;50.240;2.696;2023-05-10T01:54:41;6.35;;;1.92;;
73776;SDS011;62088;50.240;2.696;2023-05-10T01:57:15;12.27;;;1.90;;
73776;SDS011;62088;50.240;2.696;2023-05-10T01:59:45;8.68;;;2.30;;
73776;SDS011;62088;50.240;2.696;2023-05-10T02:02:16;10.23;;;1.70;;
73776;SDS011;62088;50.240;2.696;2023-05-10T02:04:45;9.02;;;1.95;;
73776;SDS011;62088;50.240;2.696;2023-05-10T02:07:13;7.63;;;2.10;;
73776;SDS011;62088;50.240;2.696;2023-05-10T02:09:42;8.20;;;2.00;;
73776;SDS011;62088;50.240;2.696;2023-05-10T02:12:14;8.40;;;1.75;;
73776;SDS011;62088;50.240;2.696;2023-05-10T02:14:42;11.23;;;2.00;;
73776;SDS011;62088;50.240;2.696;2023-05-10T02:17:10;11.13;;;1.98;;
73776;SDS011;62088;50.240;2.696;2023-05-10T02:19:39;8.93;;;2.10;;
73776;SDS011;62088;50.240;2.696;2023-05-10T02:22:08;10.73;;;1.95;;
73776;SDS011;62088;50.240;2.696;2023-05-10T02:24:36;14.35;;;2.20;;
73776;SDS011;62088;50.240;2.696;2023-05-10T02:27:04;7.32;;;2.10;;
73776;SDS011;62088;50.240;2.696;2023-05-10T02:29:34;6.53;;;1.55;;
73776;SDS011;62088;50.240;2.696;2023-05-10T02:32:02;12.82;;;2.15;;
73776;SDS011;62088;50.240;2.696;2023-05-10T02:34:30;11.57;;;2.15;;
73776;SDS011;62088;50.240;2.696;2023-05-10T02:36:58;6.93;;;1.85;;
73776;SDS011;62088;50.240;2.696;2023-05-10T02:39:27;8.05;;;1.80;;
73776;SDS011;62088;50.240;2.696;2023-05-10T02:41:58;8.95;;;1.92;;
73776;SDS011;62088;50.240;2.696;2023-05-10T02:44:26;10.63;;;2.65;;
73776;SDS011;62088;50.240;2.696;2023-05-10T02:46:57;10.55;;;1.92;;
73776;SDS011;62088;50.240;2.696;2023-05-10T02:49:24;9.57;;;2.38;;
73776;SDS011;62088;50.240;2.696;2023-05-10T02:51:54;9.55;;;2.10;;
73776;SDS011;62088;50.240;2.696;2023-05-10T02:54:27;6.85;;;1.73;;
73776;SDS011;62088;50.240;2.696;2023-05-10T02:56:58;7.05;;;1.70;;
73776;SDS011;62088;50.240;2.696;2023-05-10T02:59:30;10.00;;;2.00;;
73776;SDS011;62088;50.240;2.696;2023-05-10T03:01:59;9.30;;;1.70;;
73776;SDS011;62088;50.240;2.696;2023-05-10T03:04:26;7.90;;;2.00;;
73776;SDS011;62088;50.240;2.696;2023-05-10T03:06:55;8.48;;;1.95;;
73776;SDS011;62088;50.240;2.696;2023-05-10T03:09:23;8.35;;;2.10;;
73776;SDS011;62088;50.240;2.696;2023-05-10T03:17:05;5.25;;;1.33;;
73776;SDS011;62088;50.240;2.696;2023-05-10T03:22:21;12.38;;;2.15;;
73776;SDS011;62088;50.240;2.696;2023-05-10T03:25:12;8.32;;;1.45;;
73776;SDS011;62088;50.240;2.696;2023-05-10T03:27:42;7.60;;;2.03;;
73776;SDS011;62088;50.240;2.696;2023-05-10T03:30:11;8.90;;;1.65;;
73776;SDS011;62088;50.240;2.696;2023-05-10T03:32:39;7.30;;;1.63;;
73776;SDS011;62088;50.240;2.696;2023-05-10T03:35:10;10.13;;;1.50;;
73776;SDS011;62088;50.240;2.696;2023-05-10T03:37:39;6.25;;;1.60;;
73776;SDS011;62088;50.240;2.696;2023-05-10T03:40:07;8.73;;;2.08;;
73776;SDS011;62088;50.240;2.696;2023-05-10T03:42:38;5.15;;;1.67;;
73776;SDS011;62088;50.240;2.696;2023-05-10T03:45:06;8.57;;;1.77;;
73776;SDS011;62088;50.240;2.696;2023-05-10T03:47:34;8.32;;;2.25;;
73776;SDS011;62088;50.240;2.696;2023-05-10T03:50:01;6.68;;;1.92;;
73776;SDS011;62088;50.240;2.696;2023-05-10T03:52:28;6.47;;;1.67;;
73776;SDS011;62088;50.240;2.696;2023-05-10T03:54:56;7.28;;;1.80;;
73776;SDS011;62088;50.240;2.696;2023-05-10T03:57:23;7.97;;;1.80;;
73776;SDS011;62088;50.240;2.696;2023-05-10T03:59:50;10.18;;;1.80;;
73776;SDS011;62088;50.240;2.696;2023-05-10T04:02:17;9.60;;;1.65;;
73776;SDS011;62088;50.240;2.696;2023-05-10T04:04:44;5.43;;;1.48;;
73776;SDS011;62088;50.240;2.696;2023-05-10T04:07:11;3.92;;;1.50;;
73776;SDS011;62088;50.240;2.696;2023-05-10T04:09:38;5.78;;;1.40;;
73776;SDS011;62088;50.240;2.696;2023-05-10T04:12:05;6.60;;;1.33;;
73776;SDS011;62088;50.240;2.696;2023-05-10T04:14:36;4.53;;;1.50;;
73776;SDS011;62088;50.240;2.696;2023-05-10T04:17:03;6.47;;;1.50;;
73776;SDS011;62088;50.240;2.696;2023-05-10T04:19:31;4.50;;;1.20;;
73776;SDS011;62088;50.240;2.696;2023-05-10T04:21:58;9.55;;;1.50;;
73776;SDS011;62088;50.240;2.696;2023-05-10T04:24:26;3.90;;;1.20;;
73776;SDS011;62088;50.240;2.696;2023-05-10T04:26:53;5.65;;;1.50;;
73776;SDS011;62088;50.240;2.696;2023-05-10T04:29:23;5.70;;;1.60;;
73776;SDS011;62088;50.240;2.696;2023-05-10T04:31:50;5.72;;;1.45;;
73776;SDS011;62088;50.240;2.696;2023-05-10T04:34:17;6.03;;;1.52;;
73776;SDS011;62088;50.240;2.696;2023-05-10T04:36:44;6.30;;;2.38;;
73776;SDS011;62088;50.240;2.696;2023-05-10T04:39:11;5.05;;;1.42;;
73776;SDS011;62088;50.240;2.696;2023-05-10T04:41:40;5.88;;;1.65;;
73776;SDS011;62088;50.240;2.696;2023-05-10T04:44:07;7.00;;;1.65;;
73776;SDS011;62088;50.240;2.696;2023-05-10T04:46:34;5.63;;;1.90;;
73776;SDS011;62088;50.240;2.696;2023-05-10T04:49:01;5.40;;;1.48;;
73776;SDS011;62088;50.240;2.696;2023-05-10T04:51:28;3.72;;;1.58;;
73776;SDS011;62088;50.240;2.696;2023-05-10T04:53:55;6.05;;;1.55;;
73776;SDS011;62088;50.240;2.696;2023-05-10T04:56:31;4.50;;;1.60;;
73776;SDS011;62088;50.240;2.696;2023-05-10T04:58:58;7.28;;;1.40;;
73776;SDS011;62088;50.240;2.696;2023-05-10T05:01:25;5.53;;;1.63;;
73776;SDS011;62088;50.240;2.696;2023-05-10T05:03:52;4.70;;;1.60;;
73776;SDS011;62088;50.240;2.696;2023-05-10T05:06:20;5.57;;;1.60;;
73776;SDS011;62088;50.240;2.696;2023-05-10T05:08:47;6.65;;;1.52;;
73776;SDS011;62088;50.240;2.696;2023-05-10T05:11:16;4.18;;;1.40;;
73776;SDS011;62088;50.240;2.696;2023-05-10T05:13:43;9.10;;;1.63;;
73776;SDS011;62088;50.240;2.696;2023-05-10T05:16:10;6.00;;;1.85;;
73776;SDS011;62088;50.240;2.696;2023-05-10T05:18:38;4.65;;;1.50;;
73776;SDS011;62088;50.240;2.696;2023-05-10T05:21:18;3.25;;;1.40;;
73776;SDS011;62088;50.240;2.696;2023-05-10T05:23:46;4.60;;;1.58;;
73776;SDS011;62088;50.240;2.696;2023-05-10T05:26:13;6.72;;;1.83;;
73776;SDS011;62088;50.240;2.696;2023-05-10T05:28:41;6.13;;;2.08;;
73776;SDS011;62088;50.240;2.696;2023-05-10T05:31:08;7.75;;;1.75;;
73776;SDS011;62088;50.240;2.696;2023-05-10T05:33:36;4.00;;;1.70;;
73776;SDS011;62088;50.240;2.696;2023-05-10T05:36:03;6.15;;;1.65;;
73776;SDS011;62088;50.240;2.696;2023-05-10T05:38:31;5.32;;;1.52;;
73776;SDS011;62088;50.240;2.696;2023-05-10T05:40:59;4.93;;;1.88;;
73776;SDS011;62088;50.240;2.696;2023-05-10T05:43:26;5.03;;;1.80;;
73776;SDS011;62088;50.240;2.696;2023-05-10T05:45:53;5.60;;;1.80;;
73776;SDS011;62088;50.240;2.696;2023-05-10T05:48:20;6.25;;;1.98;;
73776;SDS011;62088;50.240;2.696;2023-05-10T05:50:47;6.15;;;2.22;;
73776;SDS011;62088;50.240;2.696;2023-05-10T05:53:14;8.82;;;2.00;;
73776;SDS011;62088;50.240;2.696;2023-05-10T05:55:54;10.80;;;2.30;;
73776;SDS011;62088;50.240;2.696;2023-05-10T05:58:24;5.15;;;2.40;;
73776;SDS011;62088;50.240;2.696;2023-05-10T06:00:51;7.03;;;2.22;;
73776;SDS011;62088;50.240;2.696;2023-05-10T06:03:19;5.85;;;1.90;;
73776;SDS011;62088;50.240;2.696;2023-05-10T06:05:47;4.43;;;2.08;;
73776;SDS011;62088;50.240;2.696;2023-05-10T06:08:14;5.60;;;2.17;;
73776;SDS011;62088;50.240;2.696;2023-05-10T06:10:41;8.10;;;2.10;;
73776;SDS011;62088;50.240;2.696;2023-05-10T06:13:08;5.05;;;1.90;;
73776;SDS011;62088;50.240;2.696;2023-05-10T06:15:35;4.97;;;1.88;;
73776;SDS011;62088;50.240;2.696;2023-05-10T06:18:02;8.80;;;1.88;;
73776;SDS011;62088;50.240;2.696;2023-05-10T06:20:30;5.50;;;2.10;;
73776;SDS011;62088;50.240;2.696;2023-05-10T06:22:58;8.52;;;1.88;;
73776;SDS011;62088;50.240;2.696;2023-05-10T06:25:25;5.47;;;2.20;;
73776;SDS011;62088;50.240;2.696;2023-05-10T06:27:52;3.40;;;1.70;;
73776;SDS011;62088;50.240;2.696;2023-05-10T06:30:24;5.95;;;2.10;;
73776;SDS011;62088;50.240;2.696;2023-05-10T06:32:55;6.30;;;2.08;;
73776;SDS011;62088;50.240;2.696;2023-05-10T06:35:23;6.68;;;2.30;;
73776;SDS011;62088;50.240;2.696;2023-05-10T06:37:50;5.45;;;2.30;;
73776;SDS011;62088;50.240;2.696;2023-05-10T06:40:18;3.85;;;1.90;;
73776;SDS011;62088;50.240;2.696;2023-05-10T06:42:46;4.68;;;2.13;;
73776;SDS011;62088;50.240;2.696;2023-05-10T06:45:14;3.90;;;1.80;;
73776;SDS011;62088;50.240;2.696;2023-05-10T06:47:42;4.95;;;2.13;;
73776;SDS011;62088;50.240;2.696;2023-05-10T06:50:10;4.93;;;2.30;;
73776;SDS011;62088;50.240;2.696;2023-05-10T06:52:40;5.47;;;2.03;;
73776;SDS011;62088;50.240;2.696;2023-05-10T06:55:07;8.48;;;2.50;;
73776;SDS011;62088;50.240;2.696;2023-05-10T06:57:35;4.45;;;2.00;;
73776;SDS011;62088;50.240;2.696;2023-05-10T07:00:02;6.45;;;2.30;;
73776;SDS011;62088;50.240;2.696;2023-05-10T07:02:31;4.38;;;2.17;;
73776;SDS011;62088;50.240;2.696;2023-05-10T07:04:58;5.13;;;2.53;;
73776;SDS011;62088;50.240;2.696;2023-05-10T07:07:28;5.45;;;2.65;;
73776;SDS011;62088;50.240;2.696;2023-05-10T07:09:56;5.80;;;2.95;;
73776;SDS011;62088;50.240;2.696;2023-05-10T07:12:24;5.82;;;2.85;;
73776;SDS011;62088;50.240;2.696;2023-05-10T07:14:51;6.35;;;3.25;;
73776;SDS011;62088;50.240;2.696;2023-05-10T07:17:19;8.82;;;4.03;;
73776;SDS011;62088;50.240;2.696;2023-05-10T07:19:46;7.10;;;4.07;;
73776;SDS011;62088;50.240;2.696;2023-05-10T07:22:14;7.47;;;3.85;;
73776;SDS011;62088;50.240;2.696;2023-05-10T07:24:41;6.88;;;4.20;;
73776;SDS011;62088;50.240;2.696;2023-05-10T07:27:09;8.98;;;4.00;;
73776;SDS011;62088;50.240;2.696;2023-05-10T07:29:36;9.40;;;4.50;;
73776;SDS011;62088;50.240;2.696;2023-05-10T07:32:04;7.55;;;3.92;;
73776;SDS011;62088;50.240;2.696;2023-05-10T07:34:32;7.65;;;4.28;;
73776;SDS011;62088;50.240;2.696;2023-05-10T07:36:59;7.78;;;5.07;;
73776;SDS011;62088;50.240;2.696;2023-05-10T07:39:27;7.93;;;4.57;;
73776;SDS011;62088;50.240;2.696;2023-05-10T07:41:54;8.98;;;5.18;;
73776;SDS011;62088;50.240;2.696;2023-05-10T07:44:22;9.43;;;5.55;;
73776;SDS011;62088;50.240;2.696;2023-05-10T07:46:49;10.52;;;5.38;;
73776;SDS011;62088;50.240;2.696;2023-05-10T07:49:17;11.18;;;5.80;;
73776;SDS011;62088;50.240;2.696;2023-05-10T07:51:44;12.98;;;6.25;;
73776;SDS011;62088;50.240;2.696;2023-05-10T07:54:11;10.10;;;5.47;;
73776;SDS011;62088;50.240;2.696;2023-05-10T07:56:39;8.60;;;5.72;;
73776;SDS011;62088;50.240;2.696;2023-05-10T07:59:14;15.25;;;6.82;;
73776;SDS011;62088;50.240;2.696;2023-05-10T08:01:42;10.50;;;6.65;;
73776;SDS011;62088;50.240;2.696;2023-05-10T08:04:09;10.75;;;6.53;;
73776;SDS011;62088;50.240;2.696;2023-05-10T08:06:36;12.70;;;6.70;;
73776;SDS011;62088;50.240;2.696;2023-05-10T08:09:03;16.20;;;7.80;;
73776;SDS011;62088;50.240;2.696;2023-05-10T08:11:31;13.38;;;7.45;;
73776;SDS011;62088;50.240;2.696;2023-05-10T08:14:00;13.65;;;7.75;;
73776;SDS011;62088;50.240;2.696;2023-05-10T08:16:27;14.65;;;7.63;;
73776;SDS011;62088;50.240;2.696;2023-05-10T08:18:55;16.80;;;9.10;;
73776;SDS011;62088;50.240;2.696;2023-05-10T08:21:22;15.63;;;8.52;;
73776;SDS011;62088;50.240;2.696;2023-05-10T08:23:49;13.55;;;9.13;;
73776;SDS011;62088;50.240;2.696;2023-05-10T08:26:16;17.80;;;9.85;;
73776;SDS011;62088;50.240;2.696;2023-05-10T08:28:43;19.55;;;10.55;;
73776;SDS011;62088;50.240;2.696;2023-05-10T08:31:11;15.95;;;9.60;;
73776;SDS011;62088;50.240;2.696;2023-05-10T08:33:38;18.60;;;10.35;;
73776;SDS011;62088;50.240;2.696;2023-05-10T08:36:08;16.50;;;11.05;;
73776;SDS011;62088;50.240;2.696;2023-05-10T08:38:35;17.58;;;9.80;;
73776;SDS011;62088;50.240;2.696;2023-05-10T08:41:03;15.20;;;9.05;;
73776;SDS011;62088;50.240;2.696;2023-05-10T08:43:32;19.02;;;9.30;;
73776;SDS011;62088;50.240;2.696;2023-05-10T08:46:03;12.02;;;8.07;;
73776;SDS011;62088;50.240;2.696;2023-05-10T08:48:34;12.98;;;7.43;;
73776;SDS011;62088;50.240;2.696;2023-05-10T08:51:02;12.00;;;7.63;;
73776;SDS011;62088;50.240;2.696;2023-05-10T08:53:30;12.85;;;6.95;;
73776;SDS011;62088;50.240;2.696;2023-05-10T08:56:00;14.50;;;7.03;;
73776;SDS011;62088;50.240;2.696;2023-05-10T08:58:28;13.23;;;7.13;;
73776;SDS011;62088;50.240;2.696;2023-05-10T09:00:55;10.38;;;6.75;;
73776;SDS011;62088;50.240;2.696;2023-05-10T09:03:24;14.32;;;7.03;;
73776;SDS011;62088;50.240;2.696;2023-05-10T09:05:51;14.55;;;7.95;;
73776;SDS011;62088;50.240;2.696;2023-05-10T09:08:18;15.45;;;8.68;;
73776;SDS011;62088;50.240;2.696;2023-05-10T09:10:46;16.33;;;9.68;;
73776;SDS011;62088;50.240;2.696;2023-05-10T09:13:15;12.75;;;8.70;;
73776;SDS011;62088;50.240;2.696;2023-05-10T09:15:43;18.90;;;9.68;;
73776;SDS011;62088;50.240;2.696;2023-05-10T09:18:11;15.23;;;9.02;;
73776;SDS011;62088;50.240;2.696;2023-05-10T09:20:39;14.88;;;8.68;;
73776;SDS011;62088;50.240;2.696;2023-05-10T09:23:06;12.45;;;7.70;;
73776;SDS011;62088;50.240;2.696;2023-05-10T09:25:33;12.45;;;7.68;;
73776;SDS011;62088;50.240;2.696;2023-05-10T09:28:01;12.63;;;6.72;;
73776;SDS011;62088;50.240;2.696;2023-05-10T09:30:29;15.10;;;7.40;;
73776;SDS011;62088;50.240;2.696;2023-05-10T09:32:58;11.20;;;6.07;;
73776;SDS011;62088;50.240;2.696;2023-05-10T09:35:29;12.63;;;6.93;;
73776;SDS011;62088;50.240;2.696;2023-05-10T09:38:00;9.93;;;6.87;;
73776;SDS011;62088;50.240;2.696;2023-05-10T09:40:29;10.82;;;6.63;;
73776;SDS011;62088;50.240;2.696;2023-05-10T09:43:06;12.45;;;7.05;;
73776;SDS011;62088;50.240;2.696;2023-05-10T09:45:34;10.25;;;6.43;;
73776;SDS011;62088;50.240;2.696;2023-05-10T09:48:04;11.35;;;6.95;;
73776;SDS011;62088;50.240;2.696;2023-05-10T09:50:32;12.27;;;6.60;;
73776;SDS011;62088;50.240;2.696;2023-05-10T09:53:01;10.13;;;5.97;;
73776;SDS011;62088;50.240;2.696;2023-05-10T09:58:02;13.02;;;5.45;;
73776;SDS011;62088;50.240;2.696;2023-05-10T10:00:34;9.90;;;5.20;;
73776;SDS011;62088;50.240;2.696;2023-05-10T10:03:14;12.73;;;5.18;;
73776;SDS011;62088;50.240;2.696;2023-05-10T10:05:43;8.15;;;4.53;;
73776;SDS011;62088;50.240;2.696;2023-05-10T10:08:12;7.75;;;4.60;;
73776;SDS011;62088;50.240;2.696;2023-05-10T10:10:40;8.00;;;4.30;;
73776;SDS011;62088;50.240;2.696;2023-05-10T10:13:08;8.80;;;4.03;;
73776;SDS011;62088;50.240;2.696;2023-05-10T10:15:35;9.48;;;4.10;;
73776;SDS011;62088;50.240;2.696;2023-05-10T10:18:02;8.20;;;3.70;;
73776;SDS011;62088;50.240;2.696;2023-05-10T10:20:33;8.15;;;4.10;;
73776;SDS011;62088;50.240;2.696;2023-05-10T10:23:00;8.13;;;4.00;;
73776;SDS011;62088;50.240;2.696;2023-05-10T10:25:27;10.23;;;3.95;;
73776;SDS011;62088;50.240;2.696;2023-05-10T10:30:46;9.30;;;3.92;;
73776;SDS011;62088;50.240;2.696;2023-05-10T10:35:54;9.50;;;4.07;;
73776;SDS011;62088;50.240;2.696;2023-05-10T10:38:24;9.52;;;4.57;;
73776;SDS011;62088;50.240;2.696;2023-05-10T10:41:09;10.38;;;4.63;;
73776;SDS011;62088;50.240;2.696;2023-05-10T10:43:37;10.35;;;4.07;;
73776;SDS011;62088;50.240;2.696;2023-05-10T10:48:48;9.70;;;3.55;;
73776;SDS011;62088;50.240;2.696;2023-05-10T10:51:17;7.23;;;2.80;;
73776;SDS011;62088;50.240;2.696;2023-05-10T10:53:44;5.68;;;3.15;;
73776;SDS011;62088;50.240;2.696;2023-05-10T10:56:14;8.05;;;3.35;;
73776;SDS011;62088;50.240;2.696;2023-05-10T10:58:42;7.03;;;3.30;;
73776;SDS011;62088;50.240;2.696;2023-05-10T11:01:18;7.90;;;3.53;;
73776;SDS011;62088;50.240;2.696;2023-05-10T11:06:28;9.35;;;3.50;;
73776;SDS011;62088;50.240;2.696;2023-05-10T11:09:09;8.23;;;3.47;;
73776;SDS011;62088;50.240;2.696;2023-05-10T11:11:56;10.45;;;3.60;;
73776;SDS011;62088;50.240;2.696;2023-05-10T11:14:24;10.07;;;3.80;;
73776;SDS011;62088;50.240;2.696;2023-05-10T11:16:52;6.78;;;2.90;;
73776;SDS011;62088;50.240;2.696;2023-05-10T11:19:19;6.15;;;3.15;;
73776;SDS011;62088;50.240;2.696;2023-05-10T11:21:49;6.97;;;3.10;;
73776;SDS011;62088;50.240;2.696;2023-05-10T11:24:32;9.25;;;3.35;;
73776;SDS011;62088;50.240;2.696;2023-05-10T11:27:00;8.00;;;3.05;;
73776;SDS011;62088;50.240;2.696;2023-05-10T11:29:27;6.13;;;2.80;;
73776;SDS011;62088;50.240;2.696;2023-05-10T11:31:56;6.97;;;3.03;;
73776;SDS011;62088;50.240;2.696;2023-05-10T11:34:28;8.65;;;3.08;;
73776;SDS011;62088;50.240;2.696;2023-05-10T11:36:56;6.78;;;2.65;;
73776;SDS011;62088;50.240;2.696;2023-05-10T11:39:27;6.10;;;2.72;;
73776;SDS011;62088;50.240;2.696;2023-05-10T11:41:55;6.53;;;2.50;;
73776;SDS011;62088;50.240;2.696;2023-05-10T11:44:28;6.00;;;2.03;;
73776;SDS011;62088;50.240;2.696;2023-05-10T11:47:02;6.85;;;2.60;;
73776;SDS011;62088;50.240;2.696;2023-05-10T11:49:47;7.38;;;2.40;;
73776;SDS011;62088;50.240;2.696;2023-05-10T11:52:14;7.93;;;2.33;;
73776;SDS011;62088;50.240;2.696;2023-05-10T11:54:45;8.15;;;2.30;;
73776;SDS011;62088;50.240;2.696;2023-05-10T11:57:19;5.20;;;2.13;;
73776;SDS011;62088;50.240;2.696;2023-05-10T11:59:47;7.03;;;2.25;;
73776;SDS011;62088;50.240;2.696;2023-05-10T12:02:19;7.30;;;1.98;;
73776;SDS011;62088;50.240;2.696;2023-05-10T12:04:46;5.18;;;1.67;;
73776;SDS011;62088;50.240;2.696;2023-05-10T12:07:13;5.85;;;2.00;;
73776;SDS011;62088;50.240;2.696;2023-05-10T12:09:44;9.43;;;2.30;;
73776;SDS011;62088;50.240;2.696;2023-05-10T12:12:17;6.75;;;2.30;;
73776;SDS011;62088;50.240;2.696;2023-05-10T12:14:44;7.50;;;2.60;;
73776;SDS011;62088;50.240;2.696;2023-05-10T12:17:16;4.97;;;2.35;;
73776;SDS011;62088;50.240;2.696;2023-05-10T12:19:43;9.85;;;2.60;;
73776;SDS011;62088;50.240;2.696;2023-05-10T12:22:10;7.07;;;2.70;;
73776;SDS011;62088;50.240;2.696;2023-05-10T12:24:38;10.27;;;3.55;;
73776;SDS011;62088;50.240;2.696;2023-05-10T12:27:05;6.43;;;2.80;;
73776;SDS011;62088;50.240;2.696;2023-05-10T12:29:34;8.18;;;3.05;;
73776;SDS011;62088;50.240;2.696;2023-05-10T12:32:01;8.63;;;2.67;;
73776;SDS011;62088;50.240;2.696;2023-05-10T12:34:35;11.25;;;3.10;;
73776;SDS011;62088;50.240;2.696;2023-05-10T12:37:03;7.30;;;2.60;;
73776;SDS011;62088;50.240;2.696;2023-05-10T12:39:40;10.73;;;3.72;;
73776;SDS011;62088;50.240;2.696;2023-05-10T12:42:08;11.10;;;3.30;;
73776;SDS011;62088;50.240;2.696;2023-05-10T12:44:36;10.77;;;3.53;;
73776;SDS011;62088;50.240;2.696;2023-05-10T12:47:03;7.82;;;3.50;;
73776;SDS011;62088;50.240;2.696;2023-05-10T12:49:30;8.77;;;2.95;;
73776;SDS011;62088;50.240;2.696;2023-05-10T12:51:57;6.72;;;2.90;;
73776;SDS011;62088;50.240;2.696;2023-05-10T12:54:24;12.93;;;3.50;;
73776;SDS011;62088;50.240;2.696;2023-05-10T12:56:51;8.95;;;2.88;;
73776;SDS011;62088;50.240;2.696;2023-05-10T12:59:18;7.78;;;3.28;;
73776;SDS011;62088;50.240;2.696;2023-05-10T13:01:45;12.48;;;2.92;;
73776;SDS011;62088;50.240;2.696;2023-05-10T13:04:12;8.10;;;2.97;;
73776;SDS011;62088;50.240;2.696;2023-05-10T13:06:39;9.10;;;2.72;;
73776;SDS011;62088;50.240;2.696;2023-05-10T13:09:06;10.25;;;2.67;;
73776;SDS011;62088;50.240;2.696;2023-05-10T13:11:33;9.20;;;3.17;;
73776;SDS011;62088;50.240;2.696;2023-05-10T13:14:00;7.70;;;2.60;;
73776;SDS011;62088;50.240;2.696;2023-05-10T13:16:29;8.90;;;2.65;;
73776;SDS011;62088;50.240;2.696;2023-05-10T13:18:56;6.70;;;2.13;;
73776;SDS011;62088;50.240;2.696;2023-05-10T13:21:24;8.65;;;2.42;;
73776;SDS011;62088;50.240;2.696;2023-05-10T13:23:52;7.53;;;2.78;;
73776;SDS011;62088;50.240;2.696;2023-05-10T13:26:19;6.35;;;2.40;;
73776;SDS011;62088;50.240;2.696;2023-05-10T13:28:47;6.97;;;2.40;;
73776;SDS011;62088;50.240;2.696;2023-05-10T13:31:15;9.90;;;2.42;;
73776;SDS011;62088;50.240;2.696;2023-05-10T13:33:42;8.90;;;2.20;;
73776;SDS011;62088;50.240;2.696;2023-05-10T13:36:09;7.47;;;2.15;;
73776;SDS011;62088;50.240;2.696;2023-05-10T13:38:36;8.82;;;2.78;;
73776;SDS011;62088;50.240;2.696;2023-05-10T13:41:04;7.15;;;2.22;;
73776;SDS011;62088;50.240;2.696;2023-05-10T13:43:31;8.52;;;2.30;;
73776;SDS011;62088;50.240;2.696;2023-05-10T13:45:58;7.82;;;2.45;;
73776;SDS011;62088;50.240;2.696;2023-05-10T13:48:25;7.60;;;2.10;;
73776;SDS011;62088;50.240;2.696;2023-05-10T13:50:52;7.95;;;2.25;;
73776;SDS011;62088;50.240;2.696;2023-05-10T13:53:19;7.63;;;2.45;;
73776;SDS011;62088;50.240;2.696;2023-05-10T13:55:47;11.50;;;2.40;;
73776;SDS011;62088;50.240;2.696;2023-05-10T13:58:14;8.30;;;2.95;;
73776;SDS011;62088;50.240;2.696;2023-05-10T14:00:41;6.97;;;1.80;;
73776;SDS011;62088;50.240;2.696;2023-05-10T14:03:08;8.23;;;2.63;;
73776;SDS011;62088;50.240;2.696;2023-05-10T14:05:37;7.30;;;2.05;;
73776;SDS011;62088;50.240;2.696;2023-05-10T14:08:04;8.18;;;2.20;;
73776;SDS011;62088;50.240;2.696;2023-05-10T14:10:31;8.48;;;2.22;;
73776;SDS011;62088;50.240;2.696;2023-05-10T14:12:58;10.95;;;2.47;;
73776;SDS011;62088;50.240;2.696;2023-05-10T14:15:25;8.15;;;2.47;;
73776;SDS011;62088;50.240;2.696;2023-05-10T14:17:52;7.82;;;2.45;;
73776;SDS011;62088;50.240;2.696;2023-05-10T14:20:20;9.13;;;2.65;;
73776;SDS011;62088;50.240;2.696;2023-05-10T14:22:47;8.20;;;2.47;;
73776;SDS011;62088;50.240;2.696;2023-05-10T14:25:14;10.20;;;2.83;;
73776;SDS011;62088;50.240;2.696;2023-05-10T14:27:41;9.35;;;2.38;;
73776;SDS011;62088;50.240;2.696;2023-05-10T14:30:08;7.25;;;2.50;;
73776;SDS011;62088;50.240;2.696;2023-05-10T14:32:36;6.97;;;1.90;;
73776;SDS011;62088;50.240;2.696;2023-05-10T14:35:05;6.63;;;2.22;;
73776;SDS011;62088;50.240;2.696;2023-05-10T14:37:32;8.45;;;2.70;;
73776;SDS011;62088;50.240;2.696;2023-05-10T14:39:59;5.72;;;2.10;;
73776;SDS011;62088;50.240;2.696;2023-05-10T14:42:26;8.82;;;2.80;;
73776;SDS011;62088;50.240;2.696;2023-05-10T14:44:54;7.50;;;2.45;;
73776;SDS011;62088;50.240;2.696;2023-05-10T14:47:21;8.23;;;2.38;;
73776;SDS011;62088;50.240;2.696;2023-05-10T14:49:49;8.88;;;2.60;;
73776;SDS011;62088;50.240;2.696;2023-05-10T14:52:15;8.35;;;2.65;;
73776;SDS011;62088;50.240;2.696;2023-05-10T14:54:43;5.90;;;2.30;;
73776;SDS011;62088;50.240;2.696;2023-05-10T14:57:10;8.15;;;2.72;;
73776;SDS011;62088;50.240;2.696;2023-05-10T14:59:37;9.90;;;2.45;;
73776;SDS011;62088;50.240;2.696;2023-05-10T15:02:05;6.78;;;2.20;;
73776;SDS011;62088;50.240;2.696;2023-05-10T15:04:34;7.80;;;2.00;;
73776;SDS011;62088;50.240;2.696;2023-05-10T15:07:02;8.18;;;2.35;;
73776;SDS011;62088;50.240;2.696;2023-05-10T15:09:29;4.70;;;1.75;;
73776;SDS011;62088;50.240;2.696;2023-05-10T15:11:56;12.38;;;2.55;;
73776;SDS011;62088;50.240;2.696;2023-05-10T15:14:23;16.70;;;4.25;;
73776;SDS011;62088;50.240;2.696;2023-05-10T15:16:50;9.25;;;3.17;;
73776;SDS011;62088;50.240;2.696;2023-05-10T15:19:17;25.08;;;7.43;;
73776;SDS011;62088;50.240;2.696;2023-05-10T15:21:46;15.52;;;3.42;;
73776;SDS011;62088;50.240;2.696;2023-05-10T15:24:13;11.40;;;3.17;;